Decoded Metar for GMTT (TANGER in MOROCCO) (IATA:TNG) | Meteo·Mobile Aviation Weather
aviador You're here:

GMTT Decoded Metar

TANGER in MOROCCO
Report Time2018-08-21 10:30:00
UTC Time2018-08-21 10:37:36
Flight Rules vfr VFR
Wind090° at 16 kt
W.Decomp.*RWY 10: 15.8 kt HW 2.2 kt LCW
W.Rank090° ranks 2
Current wind is above 090° avg. (12.8)
Visibility9999 m
Phenomena:N/A
Clouds:Few 016 Hf
Expected CloudBase > 6,800 ft AGL from Temp-Dew spread
CeilingNone
Temp31°C (ISA +16)
Dew Point14°C (35% RH)
Heat Index30.3°C
AAT26.4°C
QNH1013 hPa
Density Alt2,129 ft
Elevation69 ft
Report Wrong Elevation
Raw Report
METAR GMTT 211030Z 09016KT 060V120 9999 R28///// FEW016 31/14 Q1013
NOSIG=

Extra information for GMTT:More info

Metar Taf Metar & Taf Last 4 Metars F.Rules Stats Wind Profile Meteogram Temp Stats Airport Information Weather charts Add Link Nearby VenuesMetar ALERT Operation Metar Decoded Social comments